createdAt,value
2022-10-11T00:02:00.637Z,22.55
2022-10-11T00:04:03.051Z,18.90
2022-10-11T00:06:06.852Z,20.17
2022-10-11T00:08:09.616Z,20.63
2022-10-11T00:10:12.026Z,22.55
2022-10-11T00:12:14.365Z,20.35
2022-10-11T00:14:16.611Z,20.85
2022-10-11T00:18:21.237Z,19.80
2022-10-11T00:20:23.996Z,22.25
2022-10-11T00:22:26.521Z,22.00
2022-10-11T00:24:28.777Z,21.65
2022-10-11T00:28:34.159Z,23.67
2022-10-11T00:30:36.579Z,26.77
2022-10-11T00:32:40.069Z,22.83
2022-10-11T00:34:42.421Z,28.00
2022-10-11T00:36:46.073Z,21.67
2022-10-11T00:38:48.539Z,24.40
2022-10-11T00:40:50.882Z,22.85
2022-10-11T00:42:53.201Z,25.60
2022-10-11T00:45:27.492Z,24.75
2022-10-11T00:47:29.879Z,23.65
2022-10-11T00:49:59.783Z,26.25
2022-10-11T00:52:32.479Z,22.25
2022-10-11T00:54:39.879Z,27.80
2022-10-11T00:56:44.421Z,29.60
2022-10-11T00:58:47.205Z,32.03
2022-10-11T01:00:50.047Z,21.95
2022-10-11T01:02:52.599Z,27.60
2022-10-11T01:05:17.873Z,30.88
2022-10-11T01:07:19.652Z,33.33
2022-10-11T01:09:22.999Z,26.40
2022-10-11T01:11:27.543Z,24.27
2022-10-11T01:13:56.769Z,28.67
2022-10-11T01:16:29.356Z,33.42
2022-10-11T01:18:54.297Z,26.02
2022-10-11T01:21:37.767Z,29.10
2022-10-11T01:24:17.868Z,28.48
2022-10-11T01:26:37.208Z,27.67
2022-10-11T01:28:58.527Z,30.88
2022-10-11T01:31:08.930Z,30.13
2022-10-11T01:33:45.695Z,31.50
2022-10-11T01:35:50.982Z,31.15
2022-10-11T01:38:03.212Z,26.42
2022-10-11T01:40:24.505Z,25.90
2022-10-11T01:42:28.567Z,27.35
2022-10-11T01:44:32.529Z,28.58
2022-10-11T01:46:36.787Z,27.88
2022-10-11T01:48:56.163Z,28.38
2022-10-11T01:51:02.423Z,24.17
2022-10-11T01:53:10.771Z,40.55
2022-10-11T01:55:28.641Z,33.80
2022-10-11T01:57:40.920Z,27.55
2022-10-11T02:00:09.245Z,26.52
2022-10-11T02:02:28.927Z,27.52
2022-10-11T02:04:33.971Z,28.35
2022-10-11T02:06:42.439Z,28.77
2022-10-11T02:09:04.494Z,28.42
2022-10-11T02:11:30.307Z,32.58
2022-10-11T02:13:45.099Z,28.83
2022-10-11T02:15:49.349Z,28.08
2022-10-11T02:17:57.281Z,28.50
2022-10-11T02:20:01.801Z,29.92
2022-10-11T02:22:08.699Z,30.38
2022-10-11T02:24:17.377Z,36.40
2022-10-11T02:26:22.353Z,31.50
2022-10-11T02:28:30.603Z,28.38
2022-10-11T02:30:33.940Z,29.05
2022-10-11T02:32:40.327Z,32.78
2022-10-11T02:34:51.485Z,25.55
2022-10-11T02:37:05.273Z,30.80
2022-10-11T02:39:15.034Z,31.67
2022-10-11T02:41:31.689Z,31.23
2022-10-11T02:43:39.728Z,33.65
2022-10-11T02:45:45.103Z,27.95
2022-10-11T02:47:48.533Z,32.42
2022-10-11T02:49:51.181Z,31.95
2022-10-11T02:51:56.837Z,27.27
2022-10-11T02:53:59.360Z,35.83
2022-10-11T02:56:01.894Z,29.15
2022-10-11T02:58:04.351Z,27.58
2022-10-11T03:00:07.806Z,33.05
2022-10-11T03:02:10.187Z,33.33
2022-10-11T03:04:12.609Z,37.00
2022-10-11T03:06:15.115Z,35.30
2022-10-11T03:08:18.339Z,36.92
2022-10-11T03:10:20.667Z,45.22
2022-10-11T03:12:23.277Z,31.38
2022-10-11T03:14:25.661Z,38.33
2022-10-11T03:16:28.045Z,32.58
2022-10-11T03:18:31.085Z,30.85
2022-10-11T03:20:33.896Z,29.02
2022-10-11T03:22:36.345Z,43.67
2022-10-11T03:24:38.686Z,34.13
2022-10-11T03:26:41.016Z,50.42
2022-10-11T03:28:43.578Z,32.17
2022-10-11T03:30:48.881Z,40.78
2022-10-11T03:32:51.275Z,39.28
2022-10-11T03:34:54.000Z,40.80
2022-10-11T03:36:56.365Z,31.77
2022-10-11T03:39:00.423Z,38.95
2022-10-11T03:41:02.713Z,36.42
2022-10-11T03:43:05.039Z,42.92
2022-10-11T03:45:09.375Z,42.30
2022-10-11T03:47:12.034Z,41.88
2022-10-11T03:49:14.327Z,40.75
2022-10-11T03:51:16.629Z,35.50
2022-10-11T03:53:19.013Z,36.13
2022-10-11T03:55:21.581Z,40.33
2022-10-11T03:57:24.175Z,42.33
2022-10-11T03:59:27.015Z,43.10
2022-10-11T04:01:29.717Z,43.38
2022-10-11T04:03:32.623Z,42.08
2022-10-11T04:05:37.024Z,33.70
2022-10-11T04:07:40.543Z,43.53
2022-10-11T04:09:43.306Z,42.17
2022-10-11T04:11:46.694Z,38.58
2022-10-11T04:13:49.384Z,37.05
2022-10-11T04:15:52.265Z,35.80
2022-10-11T04:17:54.724Z,35.42
2022-10-11T04:19:57.204Z,35.00
2022-10-11T04:22:00.165Z,39.88
2022-10-11T04:24:02.943Z,32.67
2022-10-11T04:26:08.990Z,34.25
2022-10-11T04:28:12.630Z,33.78
2022-10-11T04:30:15.513Z,33.70
2022-10-11T04:32:18.333Z,36.35
2022-10-11T04:34:21.617Z,33.63
2022-10-11T04:36:24.823Z,34.17
2022-10-11T04:38:27.343Z,30.25
2022-10-11T04:40:30.325Z,31.80
2022-10-11T04:42:32.973Z,37.17
2022-10-11T04:44:35.544Z,31.20
2022-10-11T04:46:38.714Z,29.42
2022-10-11T04:48:41.463Z,32.25
2022-10-11T04:50:46.216Z,27.30
2022-10-11T04:52:49.235Z,30.60
2022-10-11T04:54:51.834Z,31.13
2022-10-11T04:56:54.463Z,33.05
2022-10-11T04:58:57.563Z,33.05
2022-10-11T05:01:00.803Z,30.38
2022-10-11T05:03:03.484Z,25.42
2022-10-11T05:05:06.698Z,29.63
2022-10-11T05:07:09.446Z,23.52
2022-10-11T05:09:12.563Z,24.27
2022-10-11T05:11:17.343Z,23.65
2022-10-11T05:13:20.194Z,21.10
2022-10-11T05:15:23.013Z,22.50
2022-10-11T05:17:25.733Z,20.20
2022-10-11T05:19:28.814Z,25.05
2022-10-11T05:21:33.053Z,20.00
2022-10-11T05:23:37.656Z,24.83
2022-10-11T05:25:40.713Z,22.40
2022-10-11T05:27:44.253Z,19.40
2022-10-11T05:29:47.366Z,16.33
2022-10-11T05:31:50.155Z,27.13
2022-10-11T05:33:53.850Z,17.88
2022-10-11T05:35:56.613Z,22.83
2022-10-11T05:37:59.205Z,18.23
2022-10-11T05:40:05.273Z,23.90
2022-10-11T05:42:14.194Z,17.85
2022-10-11T05:44:17.493Z,20.92
2022-10-11T05:46:20.249Z,23.02
2022-10-11T05:48:24.694Z,16.98
2022-10-11T05:50:27.474Z,19.55
2022-10-11T05:52:31.087Z,19.38
2022-10-11T05:54:34.084Z,18.70
2022-10-11T05:56:36.744Z,13.82
2022-10-11T05:58:40.685Z,23.83
2022-10-11T06:00:43.406Z,17.00
2022-10-11T06:02:46.013Z,19.45
2022-10-11T06:04:48.713Z,15.13
2022-10-11T06:06:51.543Z,18.90
2022-10-11T06:08:54.123Z,14.20
2022-10-11T06:10:56.564Z,14.10
2022-10-11T06:12:59.777Z,11.23
2022-10-11T06:15:02.973Z,11.38
2022-10-11T06:17:05.418Z,7.25
2022-10-11T06:19:08.085Z,12.63
2022-10-11T06:21:10.763Z,11.20
2022-10-11T06:23:14.285Z,11.02
2022-10-11T06:25:16.975Z,8.27
2022-10-11T06:27:19.664Z,16.48
2022-10-11T06:29:23.103Z,11.10
2022-10-11T06:31:26.033Z,12.05
2022-10-11T06:33:28.724Z,9.30
2022-10-11T06:35:31.763Z,13.10
2022-10-11T06:37:34.413Z,13.95
2022-10-11T06:39:37.103Z,15.13
2022-10-11T06:41:39.863Z,13.20
2022-10-11T06:43:42.613Z,8.85
2022-10-11T06:45:45.214Z,16.85
2022-10-11T06:47:47.874Z,11.52
2022-10-11T06:49:51.033Z,7.28
2022-10-11T06:51:53.503Z,19.75
2022-10-11T06:53:58.943Z,28.33
2022-10-11T06:56:10.023Z,18.35
2022-10-11T06:58:12.623Z,11.05
2022-10-11T07:00:15.924Z,13.25
2022-10-11T07:02:18.563Z,14.85
2022-10-11T07:04:21.373Z,17.50
2022-10-11T07:06:27.767Z,17.25
2022-10-11T07:08:31.403Z,20.30
2022-10-11T07:10:35.735Z,19.23
2022-10-11T07:12:38.453Z,19.23
2022-10-11T07:14:41.674Z,12.18
2022-10-11T07:16:44.721Z,16.75
2022-10-11T07:18:48.752Z,15.50
2022-10-11T07:20:51.403Z,16.30
2022-10-11T07:22:54.006Z,13.18
2022-10-11T07:24:57.003Z,9.32
2022-10-11T07:27:00.214Z,15.95
2022-10-11T07:29:02.848Z,11.25
2022-10-11T07:31:07.725Z,14.02
2022-10-11T07:33:10.556Z,18.77
2022-10-11T07:35:13.393Z,11.93
2022-10-11T07:37:16.023Z,13.63
2022-10-11T07:39:18.683Z,12.77
2022-10-11T07:41:22.715Z,15.90
2022-10-11T07:43:25.773Z,16.08
2022-10-11T07:45:29.673Z,16.15
2022-10-11T07:47:32.684Z,20.92
2022-10-11T07:49:35.113Z,17.52
2022-10-11T07:51:38.083Z,15.40
2022-10-11T07:53:48.843Z,16.50
2022-10-11T07:55:51.973Z,12.05
2022-10-11T07:57:58.464Z,14.35
2022-10-11T08:00:01.053Z,15.82
2022-10-11T08:02:03.783Z,13.10
2022-10-11T08:04:06.414Z,12.05
2022-10-11T08:06:10.514Z,15.00
2022-10-11T08:08:13.113Z,12.48
2022-10-11T08:10:16.013Z,13.55
2022-10-11T08:12:19.013Z,14.70
2022-10-11T08:14:21.653Z,16.05
2022-10-11T08:16:24.464Z,21.27
2022-10-11T08:18:27.407Z,19.65
2022-10-11T08:20:31.613Z,20.15
2022-10-11T08:22:34.033Z,16.00
2022-10-11T08:24:38.490Z,12.93
2022-10-11T08:26:41.640Z,13.88
2022-10-11T08:28:44.679Z,20.73
2022-10-11T08:30:52.321Z,18.05
2022-10-11T08:32:55.009Z,16.27
2022-10-11T08:34:57.893Z,12.88
2022-10-11T08:37:00.627Z,17.05
2022-10-11T08:39:03.543Z,18.38
2022-10-11T08:41:29.183Z,13.73
2022-10-11T08:43:51.703Z,14.50
2022-10-11T08:45:58.863Z,14.65
2022-10-11T08:48:28.664Z,10.00
2022-10-11T08:50:31.683Z,13.80
2022-10-11T08:52:53.126Z,11.85
2022-10-11T08:55:19.344Z,12.32
2022-10-11T08:57:25.043Z,15.57
2022-10-11T08:59:34.535Z,12.25
2022-10-11T09:01:38.010Z,8.82
2022-10-11T09:03:43.743Z,12.57
2022-10-11T09:06:06.714Z,10.32
2022-10-11T09:08:41.902Z,10.77
2022-10-11T09:11:02.915Z,13.77
2022-10-11T09:13:14.669Z,21.10
2022-10-11T09:15:35.774Z,14.57
2022-10-11T09:18:09.780Z,14.13
2022-10-11T09:20:52.734Z,13.30
2022-10-11T09:25:16.185Z,9.75
2022-10-11T09:27:19.043Z,19.02
2022-10-11T09:29:29.472Z,15.68
2022-10-11T09:31:34.029Z,13.20
2022-10-11T09:33:48.843Z,11.43
2022-10-11T09:35:52.703Z,8.77
2022-10-11T09:38:32.647Z,13.60
2022-10-11T09:40:53.473Z,16.23
2022-10-11T09:42:56.145Z,18.98
2022-10-11T09:45:00.713Z,12.18
2022-10-11T09:47:03.388Z,10.63
2022-10-11T09:49:17.173Z,11.02
2022-10-11T09:51:24.543Z,10.85
2022-10-11T09:54:02.564Z,9.93
2022-10-11T09:56:05.954Z,11.82
2022-10-11T09:58:30.843Z,12.13
2022-10-11T10:00:34.469Z,11.68
2022-10-11T10:02:51.703Z,10.88
2022-10-11T10:05:01.093Z,9.20
2022-10-11T10:07:13.752Z,15.60
2022-10-11T10:09:27.643Z,19.13
2022-10-11T10:11:37.473Z,12.05
2022-10-11T10:13:51.975Z,14.88
2022-10-11T10:15:58.963Z,9.35
2022-10-11T10:18:03.005Z,9.45
2022-10-11T10:20:07.659Z,14.10
2022-10-11T10:22:22.654Z,12.80
2022-10-11T10:24:34.173Z,13.30
2022-10-11T10:26:36.743Z,17.20
2022-10-11T10:28:40.098Z,15.73
2022-10-11T10:30:54.773Z,14.50
2022-10-11T10:33:09.153Z,12.43
2022-10-11T10:35:38.963Z,12.50
2022-10-11T10:37:54.533Z,10.15
2022-10-11T10:40:30.593Z,9.82
2022-10-11T10:42:33.784Z,11.57
2022-10-11T10:44:36.763Z,10.38
2022-10-11T10:46:56.704Z,11.30
2022-10-11T10:51:34.823Z,13.25
2022-10-11T10:53:47.953Z,14.75
2022-10-11T10:56:09.059Z,20.52
2022-10-11T10:58:37.963Z,12.48
2022-10-11T11:00:51.078Z,9.57
2022-10-11T11:03:23.295Z,13.55
2022-10-11T11:05:59.624Z,11.25
2022-10-11T11:08:31.793Z,14.38
2022-10-11T11:10:48.764Z,15.57
2022-10-11T11:13:13.533Z,12.35
2022-10-11T11:15:34.297Z,14.20
2022-10-11T11:17:49.133Z,11.20
2022-10-11T11:19:57.573Z,14.73
2022-10-11T11:22:18.933Z,15.10
2022-10-11T11:24:39.043Z,14.27
2022-10-11T11:27:35.323Z,15.60
2022-10-11T11:29:55.629Z,17.52
2022-10-11T11:32:20.575Z,9.13
2022-10-11T11:34:54.575Z,14.32
2022-10-11T11:37:06.303Z,14.93
2022-10-11T11:39:34.635Z,16.85
2022-10-11T11:41:57.433Z,12.45
2022-10-11T11:44:06.716Z,11.55
2022-10-11T11:46:50.793Z,14.65
2022-10-11T11:48:57.734Z,12.18
2022-10-11T11:51:08.973Z,11.15
2022-10-11T11:53:41.533Z,21.23
2022-10-11T11:55:53.185Z,24.00
2022-10-11T11:58:23.003Z,29.38
2022-10-11T12:00:30.863Z,15.13
2022-10-11T12:02:49.042Z,16.35
2022-10-11T12:04:53.167Z,15.13
2022-10-11T12:07:17.756Z,18.75
2022-10-11T12:09:23.903Z,13.85
2022-10-11T12:11:40.223Z,14.60
2022-10-11T12:13:45.474Z,13.20
2022-10-11T12:16:14.353Z,9.27
2022-10-11T12:18:18.564Z,12.15
2022-10-11T12:20:21.523Z,12.70
2022-10-11T12:22:30.445Z,12.13
2022-10-11T12:24:58.993Z,8.27
2022-10-11T12:27:39.814Z,8.38
2022-10-11T12:29:49.123Z,8.55
2022-10-11T12:32:16.633Z,6.38
2022-10-11T12:34:21.705Z,12.77
2022-10-11T12:36:30.668Z,13.70
2022-10-11T12:38:40.244Z,10.38
2022-10-11T12:40:44.474Z,10.13
2022-10-11T12:43:29.863Z,9.50
2022-10-11T12:45:34.494Z,10.55
2022-10-11T12:47:47.493Z,12.52
2022-10-11T12:50:08.434Z,14.93
2022-10-11T12:52:23.113Z,15.27
2022-10-11T12:54:50.626Z,21.25
2022-10-11T12:57:22.054Z,15.00
2022-10-11T12:59:25.754Z,12.02
2022-10-11T13:01:34.068Z,9.90
2022-10-11T13:04:08.844Z,17.27
2022-10-11T13:06:21.223Z,15.43
2022-10-11T13:10:44.373Z,10.23
2022-10-11T13:12:49.114Z,20.17
2022-10-11T13:15:06.024Z,16.02
2022-10-11T13:17:08.783Z,9.95
2022-10-11T13:19:15.894Z,10.60
2022-10-11T13:21:29.475Z,13.60
2022-10-11T13:23:39.367Z,11.48
2022-10-11T13:25:42.533Z,16.02
2022-10-11T13:27:45.563Z,16.50
2022-10-11T13:29:50.384Z,20.38
2022-10-11T13:31:53.354Z,13.77
2022-10-11T13:33:59.604Z,17.02
2022-10-11T13:36:05.571Z,16.83
2022-10-11T13:38:32.524Z,12.30
2022-10-11T13:40:36.343Z,13.02
2022-10-11T13:42:39.124Z,11.18
2022-10-11T13:44:42.962Z,11.18
2022-10-11T13:46:45.684Z,6.53
2022-10-11T13:48:58.683Z,10.25
2022-10-11T13:51:33.056Z,10.40
2022-10-11T13:53:36.164Z,5.75
2022-10-11T13:55:59.914Z,14.60
2022-10-11T13:58:12.791Z,8.73
2022-10-11T14:00:20.383Z,18.10
2022-10-11T14:02:24.524Z,16.35
2022-10-11T14:04:29.826Z,16.73
2022-10-11T14:06:54.075Z,15.90
2022-10-11T14:08:58.915Z,14.00
2022-10-11T14:11:06.121Z,15.48
2022-10-11T14:13:38.485Z,13.07
2022-10-11T14:15:41.194Z,14.50
2022-10-11T14:17:45.994Z,19.35
2022-10-11T14:20:07.458Z,7.93
2022-10-11T14:22:18.168Z,18.67
2022-10-11T14:24:21.224Z,13.73
2022-10-11T14:26:26.185Z,10.13
2022-10-11T14:28:28.760Z,10.65
2022-10-11T14:30:31.933Z,13.95
2022-10-11T14:32:36.713Z,11.93
2022-10-11T14:34:39.415Z,20.70
2022-10-11T14:36:42.004Z,21.83
2022-10-11T14:38:44.424Z,20.17
2022-10-11T14:40:46.955Z,15.02
2022-10-11T14:42:49.744Z,16.50
2022-10-11T14:44:52.526Z,19.50
2022-10-11T14:46:55.220Z,13.38
2022-10-11T14:48:57.854Z,15.60
2022-10-11T14:51:03.073Z,16.15
2022-10-11T14:53:06.725Z,9.80
2022-10-11T14:55:09.199Z,14.95
2022-10-11T14:57:13.643Z,12.43
2022-10-11T14:59:18.283Z,17.20
2022-10-11T15:01:20.993Z,22.50
2022-10-11T15:03:23.604Z,19.00
2022-10-11T15:05:33.705Z,12.90
2022-10-11T15:07:37.444Z,19.17
2022-10-11T15:09:40.224Z,15.88
2022-10-11T15:11:42.934Z,11.07
2022-10-11T15:13:46.307Z,21.00
2022-10-11T15:15:48.864Z,11.27
2022-10-11T15:17:55.443Z,26.15
2022-10-11T15:19:57.884Z,11.52
2022-10-11T15:22:02.869Z,16.70
2022-10-11T15:24:05.573Z,20.63
2022-10-11T15:26:08.447Z,17.08
2022-10-11T15:28:40.046Z,14.85
2022-10-11T15:30:42.644Z,11.95
2022-10-11T15:32:46.884Z,21.27
2022-10-11T15:34:49.444Z,20.48
2022-10-11T15:36:51.914Z,14.88
2022-10-11T15:38:54.494Z,16.92
2022-10-11T15:40:58.734Z,16.50
2022-10-11T15:43:02.103Z,17.77
2022-10-11T15:45:04.773Z,28.13
2022-10-11T15:47:07.344Z,17.65
2022-10-11T15:49:14.034Z,21.50
2022-10-11T15:51:17.103Z,16.63
2022-10-11T15:53:33.134Z,19.92
2022-10-11T15:55:40.826Z,12.18
2022-10-11T15:57:43.407Z,25.92
2022-10-11T15:59:46.044Z,19.92
2022-10-11T16:01:49.021Z,27.70
2022-10-11T16:03:51.875Z,17.33
2022-10-11T16:05:55.783Z,15.82
2022-10-11T16:07:58.462Z,21.55
2022-10-11T16:10:01.084Z,21.60
2022-10-11T16:12:03.693Z,13.23
2022-10-11T16:14:07.103Z,18.58
2022-10-11T16:16:11.290Z,14.80
2022-10-11T16:18:18.026Z,15.75
2022-10-11T16:20:25.964Z,11.52
2022-10-11T16:22:29.714Z,14.65
2022-10-11T16:24:32.267Z,17.10
2022-10-11T16:26:34.914Z,15.77
2022-10-11T16:28:38.183Z,12.60
2022-10-11T16:30:43.674Z,24.45
2022-10-11T16:32:46.385Z,18.75
2022-10-11T16:34:49.173Z,17.63
2022-10-11T16:36:51.724Z,22.48
2022-10-11T16:38:54.314Z,17.27
2022-10-11T16:40:56.954Z,19.52
2022-10-11T16:43:07.356Z,14.48
2022-10-11T16:45:11.863Z,15.48
2022-10-11T16:47:14.583Z,24.15
2022-10-11T16:49:19.956Z,14.68
2022-10-11T16:51:24.553Z,29.10
2022-10-11T16:53:27.215Z,28.17
2022-10-11T16:55:29.774Z,26.08
2022-10-11T16:57:32.383Z,30.60
2022-10-11T16:59:35.293Z,16.63
2022-10-11T17:01:37.915Z,23.85
2022-10-11T17:03:40.543Z,20.10
2022-10-11T17:05:43.164Z,23.05
2022-10-11T17:07:45.784Z,23.73
2022-10-11T17:09:49.283Z,20.52
2022-10-11T17:11:52.824Z,23.27
2022-10-11T17:13:55.343Z,26.10
2022-10-11T17:15:57.924Z,21.95
2022-10-11T17:18:00.873Z,26.17
2022-10-11T17:20:04.123Z,27.27
2022-10-11T17:22:06.543Z,29.00
2022-10-11T17:24:09.694Z,21.35
2022-10-11T17:26:20.433Z,33.03
2022-10-11T17:28:23.183Z,22.27
2022-10-11T17:30:26.624Z,24.35
2022-10-11T17:32:29.115Z,25.50
2022-10-11T17:34:31.796Z,32.53
2022-10-11T17:36:37.523Z,31.85
2022-10-11T17:38:39.863Z,35.83
2022-10-11T17:40:42.564Z,18.02
2022-10-11T17:42:45.354Z,20.27
2022-10-11T17:44:48.413Z,24.10
2022-10-11T17:46:50.915Z,25.95
2022-10-11T17:48:56.043Z,23.02
2022-10-11T17:50:58.474Z,29.50
2022-10-11T17:53:01.411Z,23.38
2022-10-11T17:55:04.424Z,28.15
2022-10-11T17:57:09.054Z,26.63
2022-10-11T17:59:17.995Z,29.20
2022-10-11T18:01:23.484Z,26.83
2022-10-11T18:03:26.165Z,27.27
2022-10-11T18:05:28.673Z,28.83
2022-10-11T18:07:31.374Z,21.77
2022-10-11T18:09:35.655Z,25.90
2022-10-11T18:11:38.704Z,18.35
2022-10-11T18:13:46.546Z,20.13
2022-10-11T18:15:53.521Z,24.85
2022-10-11T18:17:58.143Z,25.52
2022-10-11T18:20:00.684Z,27.73
2022-10-11T18:22:06.971Z,27.13
2022-10-11T18:24:15.964Z,21.33
2022-10-11T18:26:22.796Z,24.48
2022-10-11T18:28:28.192Z,22.50
2022-10-11T18:30:31.550Z,35.10
2022-10-11T18:32:34.374Z,32.58
2022-10-11T18:34:40.452Z,37.25
2022-10-11T18:36:43.357Z,26.48
2022-10-11T18:38:47.503Z,30.65
2022-10-11T18:40:50.524Z,20.60
2022-10-11T18:42:53.403Z,25.38
2022-10-11T18:45:05.113Z,21.70
2022-10-11T18:47:08.514Z,29.33
2022-10-11T18:49:11.665Z,24.70
2022-10-11T18:51:27.115Z,23.80
2022-10-11T18:53:30.537Z,29.35
2022-10-11T18:55:33.915Z,25.20
2022-10-11T18:57:36.554Z,19.70
2022-10-11T18:59:40.394Z,27.50
2022-10-11T19:01:45.083Z,29.77
2022-10-11T19:03:53.137Z,20.55
2022-10-11T19:05:57.314Z,17.45
2022-10-11T19:07:59.874Z,34.75
2022-10-11T19:10:03.404Z,27.10
2022-10-11T19:12:06.194Z,28.05
2022-10-11T19:14:11.784Z,28.58
2022-10-11T19:16:17.362Z,27.58
2022-10-11T19:18:20.639Z,20.45
2022-10-11T19:20:23.904Z,28.77
2022-10-11T19:22:26.863Z,17.05
2022-10-11T19:24:30.604Z,25.05
2022-10-11T19:26:36.523Z,27.13
2022-10-11T19:28:39.719Z,28.38
2022-10-11T19:30:42.493Z,34.22
2022-10-11T19:32:45.028Z,27.05
2022-10-11T19:34:47.714Z,23.67
2022-10-11T19:36:51.443Z,31.42
2022-10-11T19:38:57.020Z,29.13
2022-10-11T19:41:01.653Z,22.65
2022-10-11T19:43:04.453Z,27.55
2022-10-11T19:45:07.904Z,22.05
2022-10-11T19:47:10.826Z,20.48
2022-10-11T19:49:16.224Z,22.60
2022-10-11T19:51:24.175Z,21.40
2022-10-11T19:53:26.554Z,25.05
2022-10-11T19:55:29.523Z,39.85
2022-10-11T19:57:32.365Z,26.38
2022-10-11T19:59:35.064Z,21.15
2022-10-11T20:01:38.727Z,30.65
2022-10-11T20:03:45.053Z,31.85
2022-10-11T20:05:48.024Z,24.88
2022-10-11T20:07:50.613Z,26.90
2022-10-11T20:09:53.146Z,34.78
2022-10-11T20:11:56.323Z,51.67
2022-10-11T20:13:59.053Z,27.55
2022-10-11T20:16:10.834Z,31.92
2022-10-11T20:18:13.794Z,26.83
2022-10-11T20:20:18.827Z,26.67
2022-10-11T20:22:21.384Z,26.25
2022-10-11T20:24:23.933Z,33.58
2022-10-11T20:26:27.645Z,28.45
2022-10-11T20:28:32.140Z,26.13
2022-10-11T20:30:34.774Z,25.23
2022-10-11T20:32:37.303Z,28.13
2022-10-11T20:34:40.215Z,40.28
2022-10-11T20:36:46.869Z,25.35
2022-10-11T20:38:52.773Z,23.45
2022-10-11T20:40:55.485Z,25.20
2022-10-11T20:42:58.086Z,28.95
2022-10-11T20:45:01.004Z,19.08
2022-10-11T20:47:04.216Z,22.27
2022-10-11T20:49:09.104Z,45.55
2022-10-11T20:51:11.605Z,29.40
2022-10-11T20:53:16.344Z,21.33
2022-10-11T20:55:18.787Z,23.58
2022-10-11T20:57:21.069Z,32.17
2022-10-11T21:01:28.537Z,17.70
2022-10-11T21:03:35.427Z,30.75
2022-10-11T21:05:38.010Z,27.02
2022-10-11T21:07:40.343Z,28.58
2022-10-11T21:09:42.689Z,26.17
2022-10-11T21:11:45.333Z,40.45
2022-10-11T21:13:47.612Z,33.33
2022-10-11T21:17:52.984Z,30.27
2022-10-11T21:19:55.563Z,33.45
2022-10-11T21:21:58.161Z,22.40
2022-10-11T21:24:02.243Z,24.42
2022-10-11T21:26:06.254Z,24.60
2022-10-11T21:28:08.933Z,31.65
2022-10-11T21:30:11.438Z,22.95
2022-10-11T21:32:14.604Z,26.60
2022-10-11T21:34:17.408Z,21.67
2022-10-11T21:36:22.175Z,17.27
2022-10-11T21:38:24.653Z,21.58
2022-10-11T21:40:27.148Z,25.35
2022-10-11T21:42:29.780Z,21.38
2022-10-11T21:44:33.136Z,23.90
2022-10-11T21:47:04.876Z,32.90
2022-10-11T21:48:59.177Z,20.73
2022-10-11T21:51:01.731Z,26.38
2022-10-11T21:53:04.072Z,24.05
2022-10-11T21:55:06.838Z,29.70
2022-10-11T21:57:08.989Z,24.60
2022-10-11T22:01:15.824Z,18.02
2022-10-11T22:03:18.887Z,23.00
2022-10-11T22:05:21.149Z,32.33
2022-10-11T22:09:25.841Z,25.45
2022-10-11T22:11:28.535Z,22.83
2022-10-11T22:13:32.692Z,24.90
2022-10-11T22:15:36.210Z,19.05
2022-10-11T22:17:38.479Z,17.05
2022-10-11T22:21:45.200Z,15.68
2022-10-11T22:23:49.793Z,17.20
2022-10-11T22:25:52.083Z,25.77
2022-10-11T22:27:54.658Z,21.60
2022-10-11T22:29:56.966Z,21.52
2022-10-11T22:31:59.260Z,17.92
2022-10-11T22:34:02.306Z,21.73
2022-10-11T22:36:10.631Z,22.08
2022-10-11T22:38:12.922Z,23.35
2022-10-11T22:40:15.228Z,18.50
2022-10-11T22:42:17.640Z,18.48
2022-10-11T22:44:19.919Z,22.63
2022-10-11T22:48:24.421Z,25.08
2022-10-11T22:50:26.662Z,20.70
2022-10-11T22:54:31.437Z,19.65
2022-10-11T22:58:36.354Z,17.85
2022-10-11T23:00:38.716Z,20.30
2022-10-11T23:02:41.457Z,25.50
2022-10-11T23:04:43.704Z,18.52
2022-10-11T23:08:48.209Z,23.15
2022-10-11T23:10:50.550Z,22.05
2022-10-11T23:12:53.090Z,16.30
2022-10-11T23:14:55.515Z,20.15
2022-10-11T23:16:58.001Z,27.65
2022-10-11T23:19:00.527Z,25.10
2022-10-11T23:21:03.550Z,14.32
2022-10-11T23:23:06.768Z,14.80
2022-10-11T23:25:09.929Z,10.48
2022-10-11T23:27:12.639Z,9.90
2022-10-11T23:29:14.929Z,13.52
2022-10-11T23:31:19.205Z,15.60
2022-10-11T23:33:21.601Z,13.10
2022-10-11T23:35:24.100Z,16.65
2022-10-11T23:37:26.757Z,20.60
2022-10-11T23:39:29.196Z,20.80
2022-10-11T23:41:31.696Z,29.27
2022-10-11T23:43:33.952Z,19.52
2022-10-11T23:47:38.892Z,20.08
2022-10-11T23:49:41.644Z,8.82
2022-10-11T23:51:43.800Z,16.88
2022-10-11T23:55:48.450Z,22.25
2022-10-11T23:59:52.994Z,22.35
